createdAt,value
2018-02-14T00:00:57.859Z,2.68
2018-02-14T00:03:25.617Z,2.69
2018-02-14T00:05:53.212Z,2.68
2018-02-14T00:08:20.839Z,2.63
2018-02-14T00:10:49.354Z,2.64
2018-02-14T00:13:17.109Z,2.61
2018-02-14T00:15:49.617Z,2.59
2018-02-14T00:18:17.119Z,2.58
2018-02-14T00:20:44.635Z,2.60
2018-02-14T00:23:12.337Z,2.62
2018-02-14T00:25:39.930Z,2.60
2018-02-14T00:28:07.438Z,2.62
2018-02-14T00:30:35.005Z,2.58
2018-02-14T00:33:02.478Z,2.55
2018-02-14T00:35:29.961Z,2.53
2018-02-14T00:37:57.677Z,2.50
2018-02-14T00:40:25.309Z,2.51
2018-02-14T00:42:55.779Z,2.47
2018-02-14T00:45:23.345Z,2.41
2018-02-14T00:47:51.007Z,2.38
2018-02-14T00:50:18.710Z,2.40
2018-02-14T00:52:46.228Z,2.41
2018-02-14T00:55:13.767Z,2.36
2018-02-14T00:57:41.208Z,2.35
2018-02-14T01:00:09.023Z,2.35
2018-02-14T01:02:36.526Z,2.29
2018-02-14T01:05:04.007Z,2.21
2018-02-14T01:07:32.199Z,2.25
2018-02-14T01:09:59.696Z,2.22
2018-02-14T01:12:27.239Z,2.24
2018-02-14T01:14:54.706Z,2.27
2018-02-14T01:17:22.230Z,2.27
2018-02-14T01:19:55.413Z,2.27
2018-02-14T01:22:22.909Z,2.22
2018-02-14T01:24:50.397Z,2.17
2018-02-14T01:27:17.851Z,2.17
2018-02-14T01:29:45.311Z,2.08
2018-02-14T01:32:12.768Z,2.10
2018-02-14T01:34:40.347Z,2.12
2018-02-14T01:37:07.824Z,2.08
2018-02-14T01:39:35.362Z,2.06
2018-02-14T01:42:02.882Z,2.04
2018-02-14T01:44:30.361Z,2.06
2018-02-14T01:46:57.855Z,2.07
2018-02-14T01:49:25.364Z,2.09
2018-02-14T01:51:52.805Z,2.09
2018-02-14T01:54:20.299Z,2.11
2018-02-14T01:56:47.796Z,2.11
2018-02-14T01:59:15.234Z,2.12
2018-02-14T02:01:42.747Z,2.08
2018-02-14T02:04:10.295Z,1.98
2018-02-14T02:06:37.778Z,1.97
2018-02-14T02:09:05.270Z,1.97
2018-02-14T02:11:32.767Z,1.96
2018-02-14T02:14:00.291Z,1.97
2018-02-14T02:16:27.762Z,1.92
2018-02-14T02:18:55.251Z,1.95
2018-02-14T02:21:22.705Z,1.96
2018-02-14T02:23:50.163Z,1.96
2018-02-14T02:26:18.477Z,1.98
2018-02-14T02:28:46.047Z,2.00
2018-02-14T02:31:13.527Z,1.99
2018-02-14T02:33:41.873Z,1.93
2018-02-14T02:36:10.272Z,1.90
2018-02-14T02:38:37.736Z,1.90
2018-02-14T02:41:05.211Z,1.84
2018-02-14T02:43:32.684Z,1.75
2018-02-14T02:46:00.476Z,1.77
2018-02-14T02:48:27.933Z,1.78
2018-02-14T02:50:55.464Z,1.79
2018-02-14T02:53:23.032Z,1.77
2018-02-14T02:55:55.730Z,1.78
2018-02-14T02:58:23.166Z,1.74
2018-02-14T03:00:50.654Z,1.80
2018-02-14T03:03:18.122Z,1.79
2018-02-14T03:05:45.608Z,1.77
2018-02-14T03:08:13.063Z,1.75
2018-02-14T03:10:41.436Z,1.68
2018-02-14T03:13:08.887Z,1.62
2018-02-14T03:15:36.350Z,1.57
2018-02-14T03:18:03.910Z,1.55
2018-02-14T03:20:31.372Z,1.57
2018-02-14T03:22:58.856Z,1.62
2018-02-14T03:25:26.320Z,1.58
2018-02-14T03:27:53.768Z,1.58
2018-02-14T03:30:21.223Z,1.57
2018-02-14T03:32:48.662Z,1.57
2018-02-14T03:35:16.358Z,1.57
2018-02-14T03:37:43.792Z,1.53
2018-02-14T03:40:11.222Z,1.51
2018-02-14T03:42:38.679Z,1.49
2018-02-14T03:45:06.154Z,1.48
2018-02-14T03:47:33.576Z,1.48
2018-02-14T03:50:01.050Z,1.47
2018-02-14T03:52:28.532Z,1.46
2018-02-14T03:54:55.962Z,1.46
2018-02-14T03:57:23.474Z,1.43
2018-02-14T03:59:51.016Z,1.44
2018-02-14T04:02:18.490Z,1.39
2018-02-14T04:04:45.970Z,1.35
2018-02-14T04:07:13.438Z,1.29
2018-02-14T04:09:40.928Z,1.27
2018-02-14T04:12:08.366Z,1.28
2018-02-14T04:14:35.901Z,1.24
2018-02-14T04:17:03.396Z,1.25
2018-02-14T04:19:30.870Z,1.27
2018-02-14T04:21:58.390Z,1.27
2018-02-14T04:24:25.930Z,1.25
2018-02-14T04:26:54.176Z,1.17
2018-02-14T04:29:21.874Z,1.12
2018-02-14T04:31:49.334Z,1.11
2018-02-14T04:34:16.779Z,1.09
2018-02-14T04:36:44.360Z,1.09
2018-02-14T04:39:11.816Z,1.09
2018-02-14T04:41:39.306Z,1.03
2018-02-14T04:44:06.746Z,1.03
2018-02-14T04:46:34.462Z,0.99
2018-02-14T04:49:01.920Z,0.95
2018-02-14T04:51:29.391Z,0.94
2018-02-14T04:53:56.860Z,0.94
2018-02-14T04:56:24.437Z,0.96
2018-02-14T04:58:51.864Z,0.96
2018-02-14T05:01:19.350Z,0.97
2018-02-14T05:03:46.820Z,0.95
2018-02-14T05:06:14.306Z,0.93
2018-02-14T05:08:41.790Z,0.91
2018-02-14T05:11:09.452Z,0.86
2018-02-14T05:13:36.912Z,0.81
2018-02-14T05:16:04.437Z,0.79
2018-02-14T05:18:31.990Z,0.80
2018-02-14T05:20:59.496Z,0.83
2018-02-14T05:23:26.991Z,0.85
2018-02-14T05:25:54.600Z,0.86
2018-02-14T05:28:22.064Z,0.87
2018-02-14T05:30:52.608Z,0.86
2018-02-14T05:33:20.298Z,0.84
2018-02-14T05:35:47.764Z,0.80
2018-02-14T05:38:15.300Z,0.82
2018-02-14T05:40:43.887Z,0.77
2018-02-14T05:43:15.200Z,0.77
2018-02-14T05:45:44.998Z,0.78
2018-02-14T05:48:13.651Z,0.74
2018-02-14T05:50:41.270Z,0.70
2018-02-14T05:53:08.738Z,0.70
2018-02-14T05:55:36.256Z,0.73
2018-02-14T05:58:03.775Z,0.70
2018-02-14T06:00:31.228Z,0.71
2018-02-14T06:02:58.804Z,0.66
2018-02-14T06:05:26.301Z,0.59
2018-02-14T06:07:53.870Z,0.50
2018-02-14T06:10:21.364Z,0.41
2018-02-14T06:12:48.892Z,0.26
2018-02-14T06:15:16.394Z,0.20
2018-02-14T06:17:43.892Z,0.23
2018-02-14T06:20:11.353Z,0.26
2018-02-14T06:22:38.810Z,0.21
2018-02-14T06:25:06.287Z,0.11
2018-02-14T06:27:34.628Z,0.06
2018-02-14T06:30:02.140Z,0.00
2018-02-14T06:32:29.643Z,0.00
2018-02-14T06:34:57.204Z,-0.02
2018-02-14T06:37:24.755Z,-0.03
2018-02-14T06:39:52.341Z,-0.04
2018-02-14T06:42:19.804Z,-0.05
2018-02-14T06:44:47.267Z,-0.01
2018-02-14T06:47:14.834Z,-0.01
2018-02-14T06:49:42.285Z,-0.05
2018-02-14T06:52:09.951Z,-0.09
2018-02-14T06:54:37.467Z,-0.09
2018-02-14T06:57:04.951Z,-0.06
2018-02-14T06:59:32.507Z,-0.02
2018-02-14T07:02:00.023Z,0.00
2018-02-14T07:04:27.520Z,-0.03
2018-02-14T07:06:55.014Z,-0.05
2018-02-14T07:09:22.597Z,-0.04
2018-02-14T07:11:50.156Z,-0.05
2018-02-14T07:14:17.657Z,0.01
2018-02-14T07:16:45.245Z,0.13
2018-02-14T07:19:12.932Z,0.23
2018-02-14T07:21:40.541Z,0.31
2018-02-14T07:24:08.099Z,0.36
2018-02-14T07:26:35.657Z,0.39
2018-02-14T07:29:04.051Z,0.41
2018-02-14T07:31:32.577Z,0.45
2018-02-14T07:34:00.179Z,0.45
2018-02-14T07:36:28.950Z,0.49
2018-02-14T07:38:56.408Z,0.58
2018-02-14T07:41:23.929Z,0.59
2018-02-14T07:43:51.373Z,0.63
2018-02-14T07:46:18.822Z,0.66
2018-02-14T07:48:46.282Z,0.69
2018-02-14T07:51:13.881Z,0.74
2018-02-14T07:53:41.391Z,0.78
2018-02-14T07:56:09.012Z,0.85
2018-02-14T07:58:36.553Z,0.84
2018-02-14T08:01:04.047Z,0.90
2018-02-14T08:03:31.626Z,0.96
2018-02-14T08:05:59.125Z,0.92
2018-02-14T08:08:26.633Z,0.99
2018-02-14T08:10:54.713Z,1.04
2018-02-14T08:13:22.177Z,1.14
2018-02-14T08:15:49.649Z,1.26
2018-02-14T08:18:17.135Z,1.37
2018-02-14T08:20:44.576Z,1.54
2018-02-14T08:23:12.215Z,1.67
2018-02-14T08:25:39.719Z,1.91
2018-02-14T08:28:07.244Z,2.12
2018-02-14T08:30:34.773Z,2.29
2018-02-14T08:33:02.290Z,2.29
2018-02-14T08:35:30.391Z,2.17
2018-02-14T08:37:57.952Z,1.95
2018-02-14T08:40:25.707Z,1.79
2018-02-14T08:42:53.404Z,1.62
2018-02-14T08:45:22.104Z,1.61
2018-02-14T08:47:49.857Z,1.51
2018-02-14T08:50:17.621Z,1.57
2018-02-14T08:52:45.153Z,1.63
2018-02-14T08:55:12.771Z,1.70
2018-02-14T08:57:40.275Z,1.85
2018-02-14T09:00:07.751Z,2.09
2018-02-14T09:02:35.259Z,2.30
2018-02-14T09:05:02.915Z,2.31
2018-02-14T09:07:31.147Z,2.25
2018-02-14T09:09:58.795Z,2.18
2018-02-14T09:12:26.569Z,2.17
2018-02-14T09:14:54.182Z,2.16
2018-02-14T09:17:21.849Z,2.16
2018-02-14T09:19:49.506Z,2.16
2018-02-14T09:22:17.010Z,2.17
2018-02-14T09:24:44.813Z,2.16
2018-02-14T09:27:12.432Z,2.15
2018-02-14T09:29:39.978Z,2.19
2018-02-14T09:32:07.595Z,2.24
2018-02-14T09:34:35.728Z,2.35
2018-02-14T09:37:03.283Z,2.42
2018-02-14T09:39:30.848Z,2.45
2018-02-14T09:41:58.374Z,2.48
2018-02-14T09:44:25.876Z,2.51
2018-02-14T09:46:53.452Z,2.55
2018-02-14T09:49:21.024Z,2.60
2018-02-14T09:51:48.553Z,2.62
2018-02-14T09:54:16.150Z,2.73
2018-02-14T09:56:43.633Z,2.82
2018-02-14T09:59:11.114Z,2.92
2018-02-14T10:01:38.609Z,3.12
2018-02-14T10:04:06.282Z,3.62
2018-02-14T10:06:33.806Z,4.80
2018-02-14T10:09:01.301Z,6.55
2018-02-14T10:11:28.837Z,8.35
2018-02-14T10:13:56.369Z,9.60
2018-02-14T10:16:23.877Z,11.22
2018-02-14T10:18:51.544Z,12.36
2018-02-14T10:21:19.042Z,13.64
2018-02-14T10:23:46.575Z,13.51
2018-02-14T10:26:14.071Z,13.63
2018-02-14T10:28:41.542Z,14.01
2018-02-14T10:31:09.063Z,13.98
2018-02-14T10:33:38.010Z,14.05
2018-02-14T10:36:05.540Z,13.90
2018-02-14T10:38:33.164Z,14.36
2018-02-14T10:41:00.682Z,13.50
2018-02-14T10:43:28.188Z,13.38
2018-02-14T10:45:55.666Z,13.08
2018-02-14T10:48:23.126Z,13.51
2018-02-14T10:50:50.769Z,13.89
2018-02-14T10:53:18.335Z,13.90
2018-02-14T10:55:45.796Z,13.39
2018-02-14T10:58:13.264Z,13.30
2018-02-14T11:00:46.316Z,12.46
2018-02-14T11:06:15.763Z,12.92
2018-02-14T11:08:43.368Z,12.87
2018-02-14T11:11:11.194Z,12.61
2018-02-14T11:13:38.744Z,12.65
2018-02-14T11:16:06.670Z,12.17
2018-02-14T11:18:34.185Z,12.03
2018-02-14T11:21:01.727Z,12.29
2018-02-14T11:23:29.281Z,12.30
2018-02-14T11:25:56.879Z,11.83
2018-02-14T11:28:24.818Z,12.12
2018-02-14T11:30:52.330Z,11.34
2018-02-14T11:33:19.852Z,10.95
2018-02-14T11:35:47.320Z,10.62
2018-02-14T11:38:14.882Z,11.03
2018-02-14T11:40:42.748Z,10.94
2018-02-14T11:43:10.410Z,11.05
2018-02-14T11:45:38.352Z,10.36
2018-02-14T11:48:06.131Z,10.67
2018-02-14T11:50:33.812Z,11.20
2018-02-14T11:53:01.421Z,12.02
2018-02-14T11:55:29.179Z,11.92
2018-02-14T11:57:56.902Z,11.95
2018-02-14T12:00:24.399Z,12.09
2018-02-14T12:02:52.429Z,11.60
2018-02-14T12:05:20.028Z,11.69
2018-02-14T12:07:47.541Z,11.64
2018-02-14T12:10:15.157Z,11.29
2018-02-14T12:12:42.670Z,11.50
2018-02-14T12:15:10.318Z,11.23
2018-02-14T12:17:37.858Z,11.54
2018-02-14T12:20:05.456Z,11.39
2018-02-14T12:22:32.984Z,11.80
2018-02-14T12:25:00.510Z,12.25
2018-02-14T12:27:28.100Z,12.42
2018-02-14T12:29:55.617Z,12.47
2018-02-14T12:32:23.144Z,13.03
2018-02-14T12:34:50.788Z,13.55
2018-02-14T12:37:18.359Z,13.98
2018-02-14T12:39:47.157Z,14.54
2018-02-14T12:42:15.799Z,14.40
2018-02-14T12:44:43.281Z,14.35
2018-02-14T12:47:10.814Z,14.71
2018-02-14T12:49:38.373Z,14.88
2018-02-14T12:52:05.913Z,14.79
2018-02-14T12:54:33.425Z,15.35
2018-02-14T12:57:00.927Z,14.59
2018-02-14T12:59:28.590Z,14.94
2018-02-14T13:01:56.083Z,15.56
2018-02-14T13:04:23.625Z,15.38
2018-02-14T13:06:51.158Z,15.07
2018-02-14T13:09:18.690Z,14.82
2018-02-14T13:11:46.182Z,14.77
2018-02-14T13:14:13.649Z,14.81
2018-02-14T13:16:41.168Z,13.89
2018-02-14T13:19:08.684Z,13.71
2018-02-14T13:21:36.456Z,14.06
2018-02-14T13:24:03.952Z,14.30
2018-02-14T13:26:31.464Z,14.79
2018-02-14T13:28:59.846Z,15.02
2018-02-14T13:31:27.482Z,14.77
2018-02-14T13:33:54.966Z,14.50
2018-02-14T13:36:23.354Z,14.28
2018-02-14T13:38:50.925Z,14.90
2018-02-14T13:41:18.516Z,14.92
2018-02-14T13:43:46.073Z,15.33
2018-02-14T13:46:13.656Z,15.47
2018-02-14T13:48:41.376Z,16.09
2018-02-14T13:51:09.009Z,15.76
2018-02-14T13:53:36.494Z,15.84
2018-02-14T13:56:04.004Z,15.99
2018-02-14T13:58:32.094Z,15.51
2018-02-14T14:00:59.579Z,15.43
2018-02-14T14:03:27.181Z,14.54
2018-02-14T14:05:54.787Z,15.20
2018-02-14T14:08:22.611Z,15.30
2018-02-14T14:10:50.194Z,15.13
2018-02-14T14:13:17.700Z,14.89
2018-02-14T14:15:45.303Z,14.35
2018-02-14T14:18:13.087Z,13.12
2018-02-14T14:20:40.720Z,12.32
2018-02-14T14:23:08.373Z,11.79
2018-02-14T14:25:35.890Z,11.70
2018-02-14T14:28:03.404Z,11.01
2018-02-14T14:30:31.205Z,10.59
2018-02-14T14:32:58.732Z,10.06
2018-02-14T14:35:26.266Z,9.63
2018-02-14T14:37:53.868Z,9.36
2018-02-14T14:40:21.687Z,8.72
2018-02-14T14:42:49.178Z,8.49
2018-02-14T14:45:16.838Z,8.42
2018-02-14T14:47:44.362Z,8.18
2018-02-14T14:50:11.950Z,8.01
2018-02-14T14:52:39.466Z,7.89
2018-02-14T14:55:07.013Z,7.83
2018-02-14T14:57:34.535Z,7.81
2018-02-14T15:00:02.068Z,7.83
2018-02-14T15:02:29.617Z,7.81
2018-02-14T15:04:57.108Z,7.63
2018-02-14T15:07:32.020Z,7.38
2018-02-14T15:09:59.930Z,7.37
2018-02-14T15:12:27.454Z,7.35
2018-02-14T15:14:55.012Z,7.27
2018-02-14T15:17:22.491Z,7.16
2018-02-14T15:19:49.979Z,7.06
2018-02-14T15:22:17.503Z,7.05
2018-02-14T15:24:45.202Z,7.05
2018-02-14T15:27:12.932Z,6.79
2018-02-14T15:29:40.489Z,6.74
2018-02-14T15:32:08.127Z,6.77
2018-02-14T15:34:35.726Z,6.77
2018-02-14T15:37:03.236Z,6.67
2018-02-14T15:39:30.835Z,6.68
2018-02-14T15:41:58.547Z,6.65
2018-02-14T15:44:26.151Z,6.57
2018-02-14T15:46:53.776Z,6.64
2018-02-14T15:49:21.295Z,6.53
2018-02-14T15:51:48.769Z,6.50
2018-02-14T15:54:16.451Z,6.55
2018-02-14T15:56:44.221Z,6.43
2018-02-14T15:59:11.860Z,6.45
2018-02-14T16:01:39.438Z,6.43
2018-02-14T16:04:06.988Z,6.36
2018-02-14T16:06:34.557Z,6.28
2018-02-14T16:09:03.671Z,6.32
2018-02-14T16:11:31.245Z,6.30
2018-02-14T16:13:58.931Z,6.28
2018-02-14T16:16:26.755Z,6.30
2018-02-14T16:18:54.275Z,6.12
2018-02-14T16:21:21.749Z,6.12
2018-02-14T16:23:49.242Z,6.18
2018-02-14T16:26:16.745Z,6.16
2018-02-14T16:28:44.185Z,6.16
2018-02-14T16:31:11.709Z,6.12
2018-02-14T16:33:39.142Z,6.14
2018-02-14T16:36:06.615Z,6.15
2018-02-14T16:38:34.115Z,6.05
2018-02-14T16:41:01.630Z,6.02
2018-02-14T16:43:29.092Z,5.88
2018-02-14T16:45:56.728Z,5.85
2018-02-14T16:48:24.219Z,5.79
2018-02-14T16:50:51.739Z,5.65
2018-02-14T16:53:20.004Z,5.68
2018-02-14T16:55:51.340Z,5.63
2018-02-14T16:58:24.781Z,5.57
2018-02-14T17:00:52.289Z,5.49
2018-02-14T17:03:19.787Z,5.52
2018-02-14T17:05:47.676Z,5.53
2018-02-14T17:08:15.259Z,5.56
2018-02-14T17:10:43.030Z,5.56
2018-02-14T17:13:10.641Z,5.54
2018-02-14T17:15:38.217Z,5.53
2018-02-14T17:18:06.123Z,5.55
2018-02-14T17:20:33.805Z,5.50
2018-02-14T17:23:01.552Z,5.42
2018-02-14T17:25:29.099Z,5.36
2018-02-14T17:27:56.585Z,5.38
2018-02-14T17:30:24.243Z,5.42
2018-02-14T17:32:51.737Z,5.39
2018-02-14T17:35:19.348Z,5.32
2018-02-14T17:37:47.751Z,5.25
2018-02-14T17:40:15.229Z,5.18
2018-02-14T17:42:42.689Z,5.22
2018-02-14T17:45:10.247Z,5.21
2018-02-14T17:47:37.773Z,5.18
2018-02-14T17:50:05.459Z,5.18
2018-02-14T17:52:33.103Z,5.24
2018-02-14T17:55:00.831Z,5.22
2018-02-14T17:57:28.427Z,5.25
2018-02-14T17:59:55.932Z,5.27
2018-02-14T18:02:23.533Z,5.23
2018-02-14T18:04:51.236Z,5.24
2018-02-14T18:07:18.883Z,5.24
2018-02-14T18:09:46.713Z,5.22
2018-02-14T18:12:14.227Z,5.12
2018-02-14T18:14:41.871Z,5.10
2018-02-14T18:17:09.439Z,5.06
2018-02-14T18:19:38.650Z,5.10
2018-02-14T18:22:06.187Z,5.02
2018-02-14T18:24:34.088Z,5.04
2018-02-14T18:27:01.638Z,5.03
2018-02-14T18:29:29.241Z,4.97
2018-02-14T18:31:56.778Z,4.96
2018-02-14T18:34:24.441Z,4.93
2018-02-14T18:36:52.061Z,4.93
2018-02-14T18:39:19.618Z,4.92
2018-02-14T18:41:47.173Z,4.90
2018-02-14T18:44:14.727Z,4.86
2018-02-14T18:46:42.218Z,4.84
2018-02-14T18:49:10.594Z,4.85
2018-02-14T18:51:38.254Z,4.88
2018-02-14T18:54:06.308Z,4.86
2018-02-14T18:56:33.785Z,4.81
2018-02-14T18:59:01.263Z,4.80
2018-02-14T19:01:28.814Z,4.81
2018-02-14T19:03:56.420Z,4.78
2018-02-14T19:06:24.031Z,4.77
2018-02-14T19:08:51.798Z,4.75
2018-02-14T19:11:19.360Z,4.74
2018-02-14T19:13:47.007Z,4.70
2018-02-14T19:16:14.842Z,4.71
2018-02-14T19:18:44.810Z,4.70
2018-02-14T19:21:13.552Z,4.66
2018-02-14T19:23:41.104Z,4.63
2018-02-14T19:26:08.667Z,4.62
2018-02-14T19:28:42.654Z,4.61
2018-02-14T19:31:10.200Z,4.57
2018-02-14T19:33:37.730Z,4.60
2018-02-14T19:36:05.294Z,4.47
2018-02-14T19:38:33.038Z,4.53
2018-02-14T19:41:00.592Z,4.53
2018-02-14T19:43:28.238Z,4.57
2018-02-14T19:45:55.800Z,4.54
2018-02-14T19:48:23.428Z,4.47
2018-02-14T19:50:51.010Z,4.48
2018-02-14T19:53:18.750Z,4.41
2018-02-14T19:55:46.236Z,4.39
2018-02-14T19:58:13.921Z,4.43
2018-02-14T20:00:41.398Z,4.39
2018-02-14T20:03:08.927Z,4.37
2018-02-14T20:05:36.472Z,4.36
2018-02-14T20:08:04.036Z,4.33
2018-02-14T20:10:31.780Z,4.31
2018-02-14T20:12:59.387Z,4.29
2018-02-14T20:15:27.228Z,4.25
2018-02-14T20:17:54.698Z,4.22
2018-02-14T20:20:22.346Z,4.18
2018-02-14T20:22:50.744Z,4.20
2018-02-14T20:25:18.314Z,4.18
2018-02-14T20:27:46.021Z,4.19
2018-02-14T20:30:13.740Z,4.18
2018-02-14T20:32:41.292Z,4.15
2018-02-14T20:35:08.852Z,4.14
2018-02-14T20:37:36.355Z,4.06
2018-02-14T20:40:03.892Z,3.99
2018-02-14T20:42:31.394Z,4.04
2018-02-14T20:44:58.963Z,4.01
2018-02-14T20:47:26.448Z,3.99
2018-02-14T20:49:53.982Z,3.95
2018-02-14T20:52:21.477Z,3.86
2018-02-14T20:54:50.074Z,3.86
2018-02-14T20:57:17.545Z,3.81
2018-02-14T20:59:45.104Z,3.76
2018-02-14T21:02:12.589Z,3.77
2018-02-14T21:04:40.172Z,3.72
2018-02-14T21:07:07.750Z,3.70
2018-02-14T21:09:36.855Z,3.66
2018-02-14T21:12:04.380Z,3.67
2018-02-14T21:14:31.922Z,3.50
2018-02-14T21:16:59.481Z,3.52
2018-02-14T21:19:27.196Z,3.51
2018-02-14T21:21:54.939Z,3.47
2018-02-14T21:24:22.398Z,3.41
2018-02-14T21:26:50.296Z,3.38
2018-02-14T21:29:18.136Z,3.39
2018-02-14T21:31:45.684Z,3.34
2018-02-14T21:34:13.143Z,3.30
2018-02-14T21:36:40.900Z,3.26
2018-02-14T21:39:08.402Z,3.22
2018-02-14T21:41:36.710Z,3.22
2018-02-14T21:44:04.222Z,3.18
2018-02-14T21:46:31.787Z,3.11
2018-02-14T21:48:59.304Z,3.12
2018-02-14T21:51:26.981Z,3.06
2018-02-14T21:53:54.512Z,3.07
2018-02-14T21:56:27.200Z,3.05
2018-02-14T21:58:54.776Z,3.03
2018-02-14T22:01:22.358Z,3.03
2018-02-14T22:03:49.968Z,3.08
2018-02-14T22:06:17.452Z,3.02
2018-02-14T22:08:44.943Z,2.98
2018-02-14T22:11:12.518Z,3.00
2018-02-14T22:13:40.121Z,2.90
2018-02-14T22:16:07.612Z,2.86
2018-02-14T22:18:35.169Z,2.84
2018-02-14T22:21:02.737Z,2.89
2018-02-14T22:23:30.292Z,2.93
2018-02-14T22:25:57.816Z,3.20
2018-02-14T22:28:25.489Z,3.14
2018-02-14T22:30:53.080Z,3.11
2018-02-14T22:33:20.586Z,2.93
2018-02-14T22:35:48.096Z,2.81
2018-02-14T22:38:16.723Z,2.78
2018-02-14T22:40:44.478Z,2.69
2018-02-14T22:43:12.107Z,2.61
2018-02-14T22:45:39.639Z,2.65
2018-02-14T22:48:07.419Z,2.65
2018-02-14T22:50:34.978Z,2.63
2018-02-14T22:53:02.500Z,2.54
2018-02-14T22:55:30.012Z,2.50
2018-02-14T22:57:57.519Z,2.45
2018-02-14T23:00:25.100Z,2.38
2018-02-14T23:02:52.642Z,2.39
2018-02-14T23:05:21.327Z,2.43
2018-02-14T23:07:49.705Z,2.41
2018-02-14T23:10:18.131Z,2.44
2018-02-14T23:12:45.719Z,2.39
2018-02-14T23:15:13.246Z,2.34
2018-02-14T23:17:40.793Z,2.38
2018-02-14T23:20:08.376Z,2.32
2018-02-14T23:22:36.079Z,2.15
2018-02-14T23:25:03.531Z,2.17
2018-02-14T23:27:31.055Z,2.20
2018-02-14T23:29:58.580Z,2.16
2018-02-14T23:32:26.131Z,2.15
2018-02-14T23:34:53.625Z,2.20
2018-02-14T23:37:21.121Z,2.24
2018-02-14T23:39:48.581Z,2.23
2018-02-14T23:42:16.031Z,2.24
2018-02-14T23:44:43.645Z,2.21
2018-02-14T23:47:11.075Z,2.22
2018-02-14T23:49:38.772Z,2.15
2018-02-14T23:52:06.307Z,2.16
2018-02-14T23:54:33.885Z,2.22
2018-02-14T23:57:01.344Z,2.27
2018-02-14T23:59:28.785Z,2.28
